Time;durP1;ratioP1;P1;durP2;ratioP2;P2;SDS_P1;SDS_P2;PMS_P1;PMS_P2;Temp;Humidity;BMP_temperature;BMP_pressure;BME280_temperature;BME280_humidity;BME280_pressure;Samples;Min_cycle;Max_cycle;Signal;HPM_P1;HPM_P2
2023/03/11 00:02:16;;;;;;;2.67;2.05;;;18.10;36.80;;;;;;5003256;28;20556;-88
2023/03/11 00:04:52;;;;;;;3.33;1.92;;;18.10;37.10;;;;;;5032639;28;20156;-89
2023/03/11 00:07:27;;;;;;;3.13;1.95;;;18.10;36.90;;;;;;5018208;28;20186;-88
2023/03/11 00:09:57;;;;;;;3.72;1.80;;;18.20;37.00;;;;;;4980128;28;20674;-88
2023/03/11 00:13:02;;;;;;;2.28;1.77;;;18.10;36.90;;;;;;4963275;29;20183;-88
2023/03/11 00:15:30;;;;;;;2.55;1.85;;;18.10;36.90;;;;;;4998418;28;20173;-89
2023/03/11 00:17:57;;;;;;;2.65;1.60;;;18.10;36.90;;;;;;4982016;28;20185;-88
2023/03/11 00:20:32;;;;;;;1.85;1.73;;;18.10;36.80;;;;;;4982537;28;20208;-89
2023/03/11 00:23:03;;;;;;;2.03;1.73;;;18.10;37.00;;;;;;4965183;28;20190;-88
2023/03/11 00:25:38;;;;;;;2.40;1.63;;;18.00;36.90;;;;;;4982063;28;20188;-89
2023/03/11 00:28:09;;;;;;;3.13;2.03;;;18.10;37.00;;;;;;4981323;28;20184;-88
2023/03/11 00:30:35;;;;;;;1.90;1.70;;;18.10;36.90;;;;;;4981524;28;20619;-88
2023/03/11 00:33:06;;;;;;;2.15;1.85;;;18.10;37.10;;;;;;4981975;28;20192;-89
2023/03/11 00:35:58;;;;;;;2.40;1.88;;;18.10;37.10;;;;;;4981278;28;20211;-88
2023/03/11 00:38:25;;;;;;;2.42;1.63;;;18.10;37.00;;;;;;4980735;28;20260;-88
2023/03/11 00:40:51;;;;;;;1.70;1.58;;;18.10;37.00;;;;;;4993192;28;20310;-88
2023/03/11 00:43:23;;;;;;;2.30;2.00;;;18.10;37.10;;;;;;4985896;28;20211;-89
2023/03/11 00:45:52;;;;;;;2.50;2.00;;;18.10;37.10;;;;;;4970404;28;20235;-89
2023/03/11 00:48:18;;;;;;;2.30;1.90;;;18.00;37.10;;;;;;4992589;28;20640;-88
2023/03/11 00:50:44;;;;;;;2.70;1.90;;;18.10;37.00;;;;;;5020034;28;20187;-89
2023/03/11 00:53:22;;;;;;;4.00;2.15;;;18.20;37.10;;;;;;5019834;28;20282;-88
2023/03/11 00:55:52;;;;;;;2.35;2.00;;;18.10;37.10;;;;;;5002293;28;20183;-89
2023/03/11 00:58:26;;;;;;;3.03;1.85;;;18.00;37.10;;;;;;4999979;28;20184;-88
2023/03/11 01:00:56;;;;;;;2.22;1.75;;;18.10;37.10;;;;;;4983686;28;20219;-88
2023/03/11 01:03:29;;;;;;;2.15;1.95;;;18.10;37.10;;;;;;4999173;28;20219;-88
2023/03/11 01:05:58;;;;;;;2.00;1.80;;;18.00;37.10;;;;;;5001273;28;20184;-89
2023/03/11 01:08:30;;;;;;;2.42;1.98;;;18.10;37.20;;;;;;5001031;28;20187;-88
2023/03/11 01:11:18;;;;;;;2.60;1.90;;;18.00;37.20;;;;;;4965317;28;20220;-89
2023/03/11 01:13:51;;;;;;;2.45;1.88;;;18.00;37.20;;;;;;4962471;29;20193;-89
2023/03/11 01:16:30;;;;;;;3.58;2.03;;;18.10;37.20;;;;;;4932117;29;20209;-88
2023/03/11 01:18:58;;;;;;;2.58;1.80;;;18.10;37.20;;;;;;4946883;29;20274;-89
2023/03/11 01:21:34;;;;;;;2.33;2.00;;;18.00;37.10;;;;;;4939983;29;20822;-88
2023/03/11 01:24:16;;;;;;;2.42;1.90;;;18.00;37.20;;;;;;4958300;29;20177;-88
2023/03/11 01:26:48;;;;;;;3.38;1.80;;;18.00;37.20;;;;;;4926503;29;20641;-88
2023/03/11 01:29:15;;;;;;;2.10;1.55;;;18.00;37.20;;;;;;4946036;29;20182;-88
2023/03/11 01:31:42;;;;;;;2.05;1.85;;;18.00;37.30;;;;;;4984771;28;20191;-89
2023/03/11 01:34:20;;;;;;;2.28;1.70;;;18.00;37.20;;;;;;4969181;28;20191;-88
2023/03/11 01:36:48;;;;;;;2.15;1.90;;;18.00;37.20;;;;;;4943639;29;20560;-88
2023/03/11 01:39:15;;;;;;;2.85;1.98;;;18.00;37.20;;;;;;4930178;29;20215;-88
2023/03/11 01:41:48;;;;;;;3.55;2.08;;;17.90;37.20;;;;;;4909048;29;20308;-88
2023/03/11 01:44:21;;;;;;;2.70;1.80;;;18.00;37.20;;;;;;4911091;29;20186;-88
2023/03/11 01:47:13;;;;;;;2.30;1.88;;;18.00;38.00;;;;;;4925996;29;20182;-88
2023/03/11 01:49:49;;;;;;;1.85;1.60;;;18.00;37.30;;;;;;4926774;29;20206;-88
2023/03/11 01:52:28;;;;;;;3.90;1.80;;;17.90;37.30;;;;;;4910814;29;20668;-88
2023/03/11 01:55:05;;;;;;;3.38;2.03;;;18.00;37.30;;;;;;4907276;29;20190;-88
2023/03/11 01:57:31;;;;;;;4.75;2.00;;;18.00;37.50;;;;;;4907883;29;20189;-89
2023/03/11 02:00:00;;;;;;;2.33;1.80;;;18.00;37.30;;;;;;4908167;29;20187;-88
2023/03/11 02:02:34;;;;;;;2.80;1.90;;;18.00;37.30;;;;;;4924838;29;20252;-89
2023/03/11 02:05:02;;;;;;;1.73;1.63;;;18.00;37.40;;;;;;4931600;29;20645;-88
2023/03/11 02:07:33;;;;;;;3.08;1.90;;;18.00;37.40;;;;;;4954565;28;20193;-89
2023/03/11 02:10:06;;;;;;;2.22;1.80;;;17.90;37.30;;;;;;4965677;28;20223;-88
2023/03/11 02:12:52;;;;;;;2.33;1.70;;;17.90;37.40;;;;;;4982128;28;20258;-87
2023/03/11 02:15:24;;;;;;;2.13;1.60;;;17.90;37.30;;;;;;4971777;28;20221;-88
2023/03/11 02:17:55;;;;;;;2.30;1.75;;;17.90;37.30;;;;;;4988560;28;20247;-89
2023/03/11 02:20:38;;;;;;;1.92;1.40;;;18.00;37.40;;;;;;4989013;28;20211;-88
2023/03/11 02:23:07;;;;;;;3.42;1.85;;;17.90;37.40;;;;;;5003556;28;20224;-88
2023/03/11 02:26:06;;;;;;;2.08;1.65;;;18.00;37.40;;;;;;5004306;28;20178;-88
2023/03/11 02:28:37;;;;;;;2.30;1.70;;;18.00;37.40;;;;;;5028420;28;20186;-88
2023/03/11 02:31:13;;;;;;;2.17;1.60;;;18.00;37.40;;;;;;5044637;28;20177;-87
2023/03/11 02:33:42;;;;;;;2.28;1.50;;;17.90;37.40;;;;;;5053797;28;20182;-88
2023/03/11 02:36:38;;;;;;;3.80;2.05;;;18.00;37.40;;;;;;5044714;28;20178;-87
2023/03/11 02:39:14;;;;;;;2.13;1.75;;;18.00;37.60;;;;;;5044324;28;20304;-88
2023/03/11 02:41:47;;;;;;;2.13;1.60;;;17.90;37.50;;;;;;5001159;28;20215;-88
2023/03/11 02:44:26;;;;;;;2.40;1.67;;;17.90;37.50;;;;;;4987331;28;20239;-88
2023/03/11 02:47:02;;;;;;;1.90;1.70;;;17.90;37.50;;;;;;4988587;28;20164;-87
2023/03/11 02:49:30;;;;;;;2.20;1.88;;;17.90;37.40;;;;;;4945945;29;20220;-87
2023/03/11 02:52:05;;;;;;;2.20;1.77;;;17.90;37.30;;;;;;4947407;29;20221;-88
2023/03/11 02:54:46;;;;;;;2.65;1.80;;;17.90;37.40;;;;;;4946887;29;20182;-88
2023/03/11 02:57:16;;;;;;;2.35;1.80;;;18.00;37.50;;;;;;4945934;29;20190;-88
2023/03/11 02:59:52;;;;;;;2.13;1.70;;;17.90;37.40;;;;;;4942203;29;20186;-88
2023/03/11 03:02:20;;;;;;;1.95;1.58;;;17.90;37.40;;;;;;4906528;29;20250;-88
2023/03/11 03:04:53;;;;;;;2.53;1.65;;;17.90;37.50;;;;;;4908927;29;20183;-88
2023/03/11 03:07:37;;;;;;;3.03;1.70;;;17.90;37.50;;;;;;4924187;29;20192;-88
2023/03/11 03:10:06;;;;;;;2.50;1.80;;;17.90;37.50;;;;;;4923475;29;20214;-88
2023/03/11 03:13:28;;;;;;;2.45;1.80;;;17.90;37.50;;;;;;4939060;29;20282;-88
2023/03/11 03:15:38;;;;;;;1.90;1.70;;;17.90;37.50;;;;;;4909740;29;20190;-88
2023/03/11 03:18:10;;;;;;;2.50;1.70;;;17.80;37.60;;;;;;4938401;29;20191;-88
2023/03/11 03:20:42;;;;;;;1.90;1.52;;;17.90;37.60;;;;;;4938377;29;20715;-88
2023/03/11 03:23:17;;;;;;;2.35;1.95;;;17.90;37.60;;;;;;4923139;29;20218;-88
2023/03/11 03:26:21;;;;;;;2.30;1.80;;;17.90;37.60;;;;;;4923056;29;20189;-88
2023/03/11 03:28:51;;;;;;;2.10;1.70;;;17.80;38.30;;;;;;4888641;29;20207;-88
2023/03/11 03:31:27;;;;;;;2.22;1.70;;;17.80;37.60;;;;;;4886517;29;20188;-88
2023/03/11 03:33:53;;;;;;;2.72;1.70;;;17.80;37.60;;;;;;4877788;29;20188;-88
2023/03/11 03:36:25;;;;;;;2.10;1.55;;;17.80;37.60;;;;;;4946819;29;20281;-88
2023/03/11 03:38:58;;;;;;;2.85;1.50;;;17.90;37.60;;;;;;4962043;28;20291;-88
2023/03/11 03:41:24;;;;;;;2.55;1.70;;;17.80;37.60;;;;;;4916651;29;20213;-88
2023/03/11 03:44:04;;;;;;;1.98;1.60;;;17.80;37.50;;;;;;4912296;29;20215;-88
2023/03/11 03:46:39;;;;;;;1.85;1.65;;;17.90;37.60;;;;;;4944302;29;20232;-88
2023/03/11 03:49:16;;;;;;;1.90;1.52;;;17.90;37.50;;;;;;4943627;29;20185;-88
2023/03/11 03:51:44;;;;;;;1.70;1.58;;;17.90;37.60;;;;;;4944565;29;20192;-89
2023/03/11 03:54:27;;;;;;;2.10;1.70;;;17.90;37.60;;;;;;4943400;29;20193;-88
2023/03/11 03:57:02;;;;;;;2.17;1.70;;;17.90;37.60;;;;;;4928026;29;20285;-88
2023/03/11 03:59:36;;;;;;;4.15;1.70;;;17.80;37.60;;;;;;4927284;29;20178;-88
2023/03/11 04:02:04;;;;;;;2.10;1.80;;;17.80;37.60;;;;;;4900630;29;20216;-88
2023/03/11 04:05:01;;;;;;;1.70;1.60;;;17.80;37.60;;;;;;4946740;29;20226;-88
2023/03/11 04:07:35;;;;;;;1.63;1.50;;;17.80;37.70;;;;;;4962840;29;20191;-88
2023/03/11 04:10:21;;;;;;;2.05;1.63;;;17.80;37.70;;;;;;4962436;29;20177;-88
2023/03/11 04:13:15;;;;;;;1.95;1.55;;;17.70;37.60;;;;;;4929460;29;20182;-88
2023/03/11 04:15:59;;;;;;;3.83;1.63;;;17.80;38.40;;;;;;4963133;28;20186;-88
2023/03/11 04:18:30;;;;;;;2.05;1.55;;;17.80;37.60;;;;;;4976889;28;20680;-88
2023/03/11 04:20:58;;;;;;;2.33;1.75;;;17.80;37.60;;;;;;4961367;29;20227;-88
2023/03/11 04:23:36;;;;;;;1.88;1.67;;;17.80;37.70;;;;;;4960661;29;20181;-88
2023/03/11 04:26:15;;;;;;;2.45;1.60;;;17.80;37.70;;;;;;4952355;28;20694;-88
2023/03/11 04:28:44;;;;;;;1.98;1.77;;;17.80;37.60;;;;;;4962504;28;20184;-88
2023/03/11 04:31:14;;;;;;;4.00;1.90;;;17.80;37.60;;;;;;4963310;28;20236;-88
2023/03/11 04:33:58;;;;;;;2.45;1.80;;;17.90;37.60;;;;;;4979799;28;20196;-88
2023/03/11 04:36:26;;;;;;;2.22;1.73;;;17.80;37.60;;;;;;4980185;28;20173;-88
2023/03/11 04:39:04;;;;;;;1.90;1.38;;;17.80;37.60;;;;;;4963048;28;20184;-88
2023/03/11 04:41:48;;;;;;;2.90;1.77;;;17.80;37.60;;;;;;4979945;28;20279;-88
2023/03/11 04:44:15;;;;;;;2.10;1.55;;;17.80;37.70;;;;;;5008944;28;20190;-88
2023/03/11 04:46:46;;;;;;;1.65;1.55;;;17.80;37.70;;;;;;5020103;28;20191;-88
2023/03/11 04:49:22;;;;;;;2.15;1.80;;;17.80;37.70;;;;;;5019685;28;20179;-88
2023/03/11 04:51:52;;;;;;;2.10;1.77;;;17.80;37.70;;;;;;5052758;28;20171;-88
2023/03/11 04:54:20;;;;;;;2.20;1.92;;;17.80;37.70;;;;;;5051423;28;20202;-88
2023/03/11 04:56:55;;;;;;;2.20;1.75;;;17.80;37.70;;;;;;5035418;28;20171;-88
2023/03/11 04:59:24;;;;;;;2.00;1.70;;;17.80;37.70;;;;;;5051346;28;20182;-87
2023/03/11 05:01:52;;;;;;;2.95;1.73;;;17.80;37.60;;;;;;5010589;28;20223;-87
2023/03/11 05:04:21;;;;;;;2.90;1.60;;;17.80;37.70;;;;;;5014104;28;20200;-88
2023/03/11 05:06:52;;;;;;;1.90;1.50;;;17.80;37.60;;;;;;5039533;28;20183;-88
2023/03/11 05:09:25;;;;;;;2.60;1.50;;;17.80;37.70;;;;;;5034049;28;20202;-89
2023/03/11 05:11:55;;;;;;;1.58;1.48;;;17.70;37.70;;;;;;5034798;28;20183;-88
2023/03/11 05:14:28;;;;;;;1.58;1.48;;;17.70;37.70;;;;;;5034173;28;20251;-88
2023/03/11 05:16:56;;;;;;;1.55;1.45;;;17.70;37.70;;;;;;5035248;28;20210;-87
2023/03/11 05:19:33;;;;;;;1.98;1.70;;;17.70;37.70;;;;;;5035313;28;20186;-87
2023/03/11 05:22:04;;;;;;;1.50;1.30;;;17.80;37.80;;;;;;5019163;28;20215;-88
2023/03/11 05:24:38;;;;;;;1.77;1.60;;;17.80;37.80;;;;;;5035407;28;20257;-88
2023/03/11 05:27:12;;;;;;;2.80;1.50;;;17.70;37.60;;;;;;5015444;28;20210;-88
2023/03/11 05:29:50;;;;;;;2.28;1.63;;;17.70;37.70;;;;;;5017924;28;20608;-88
2023/03/11 05:32:19;;;;;;;1.73;1.63;;;17.70;37.70;;;;;;5002020;28;20686;-87
2023/03/11 05:34:59;;;;;;;2.08;1.70;;;17.80;37.80;;;;;;5002079;28;20543;-87
2023/03/11 05:37:31;;;;;;;2.55;1.63;;;17.70;37.80;;;;;;5002196;28;20188;-88
2023/03/11 05:39:58;;;;;;;2.10;1.75;;;17.70;37.70;;;;;;5002092;28;20545;-87
2023/03/11 05:42:27;;;;;;;1.63;1.50;;;17.80;37.90;;;;;;5018898;28;20186;-87
2023/03/11 05:44:53;;;;;;;1.95;1.67;;;17.70;37.80;;;;;;5035111;28;20181;-88
2023/03/11 05:47:18;;;;;;;2.45;1.60;;;17.70;37.80;;;;;;5019325;28;20180;-88
2023/03/11 05:49:47;;;;;;;2.25;1.67;;;17.70;37.80;;;;;;5035440;28;20179;-88
2023/03/11 05:52:19;;;;;;;1.52;1.42;;;17.70;37.80;;;;;;5022079;28;20253;-87
2023/03/11 05:54:49;;;;;;;2.10;1.50;;;17.70;37.80;;;;;;5037382;28;20669;-88
2023/03/11 05:57:27;;;;;;;4.35;1.70;;;17.70;37.90;;;;;;5036899;28;20581;-88
2023/03/11 05:59:57;;;;;;;2.22;1.60;;;17.70;37.80;;;;;;5025133;28;20193;-88
2023/03/11 06:02:30;;;;;;;2.28;1.60;;;17.70;37.80;;;;;;5037490;28;20230;-87
2023/03/11 06:05:05;;;;;;;2.10;1.23;;;17.70;37.80;;;;;;5007292;28;20170;-88
2023/03/11 06:07:36;;;;;;;2.05;1.80;;;17.70;37.80;;;;;;5038514;28;20173;-88
2023/03/11 06:10:13;;;;;;;1.75;1.60;;;17.70;37.80;;;;;;5038530;28;20163;-88
2023/03/11 06:12:56;;;;;;;2.08;1.88;;;17.70;37.90;;;;;;5053947;28;20182;-88
2023/03/11 06:15:34;;;;;;;1.85;1.67;;;17.70;38.00;;;;;;5022343;28;20170;-88
2023/03/11 06:18:17;;;;;;;1.90;1.50;;;17.60;38.00;;;;;;5041315;28;20178;-88
2023/03/11 06:20:43;;;;;;;1.50;1.40;;;17.70;37.90;;;;;;4987116;28;20215;-88
2023/03/11 06:23:12;;;;;;;1.73;1.60;;;17.70;38.00;;;;;;4971261;28;20184;-88
2023/03/11 06:25:56;;;;;;;1.60;1.42;;;17.70;38.70;;;;;;4971549;28;20184;-88
2023/03/11 06:28:23;;;;;;;2.70;1.70;;;17.70;37.90;;;;;;4971928;28;20211;-88
2023/03/11 06:30:52;;;;;;;1.92;1.65;;;17.60;37.90;;;;;;4971812;28;20201;-88
2023/03/11 06:33:45;;;;;;;1.95;1.75;;;17.70;38.00;;;;;;4970612;28;20585;-88
2023/03/11 06:36:26;;;;;;;1.92;1.60;;;17.70;37.90;;;;;;4924895;29;20214;-88
2023/03/11 06:38:56;;;;;;;2.90;1.70;;;17.70;38.00;;;;;;4929575;29;20186;-88
2023/03/11 06:41:25;;;;;;;1.70;1.60;;;17.70;38.00;;;;;;4929855;29;20225;-88
2023/03/11 06:44:10;;;;;;;1.75;1.50;;;17.70;37.90;;;;;;4918470;29;20333;-88
2023/03/11 06:46:40;;;;;;;1.60;1.40;;;17.70;37.90;;;;;;4926810;29;20584;-88
2023/03/11 06:49:07;;;;;;;1.92;1.63;;;17.70;38.00;;;;;;4912323;29;20649;-88
2023/03/11 06:51:37;;;;;;;1.85;1.55;;;17.70;37.80;;;;;;4916697;29;20706;-89
2023/03/11 06:54:17;;;;;;;3.45;1.60;;;17.60;37.80;;;;;;4915037;29;20250;-87
2023/03/11 06:57:12;;;;;;;2.10;1.60;;;17.70;37.80;;;;;;4915934;29;20198;-88
2023/03/11 06:59:57;;;;;;;1.80;1.60;;;17.80;37.90;;;;;;4940671;28;20293;-87
2023/03/11 07:02:25;;;;;;;1.90;1.70;;;17.80;37.90;;;;;;4898963;29;20219;-88
2023/03/11 07:05:27;;;;;;;;;;;;;;;;;;;;;
2023/03/11 07:07:57;;;;;;;1.83;1.70;;;17.70;37.80;;;;;;4880175;29;20250;-88
2023/03/11 07:10:32;;;;;;;1.67;1.52;;;17.70;37.70;;;;;;4875439;29;20280;-88
2023/03/11 07:13:14;;;;;;;3.47;1.63;;;17.60;37.80;;;;;;4900976;29;20194;-88
2023/03/11 07:16:01;;;;;;;1.77;1.50;;;17.60;37.90;;;;;;4899100;29;20188;-88
2023/03/11 07:18:40;;;;;;;2.45;1.75;;;17.70;38.00;;;;;;4915150;29;20187;-88
2023/03/11 07:21:16;;;;;;;2.83;1.45;;;17.70;37.90;;;;;;4892519;29;20235;-88
2023/03/11 07:23:56;;;;;;;1.60;1.50;;;17.60;38.00;;;;;;4893202;29;20212;-88
2023/03/11 07:26:43;;;;;;;2.15;1.83;;;17.60;38.00;;;;;;4862190;29;20192;-87
2023/03/11 07:29:09;;;;;;;1.70;1.40;;;17.70;38.00;;;;;;4891679;29;20184;-87
2023/03/11 07:32:06;;;;;;;1.48;1.38;;;17.60;38.00;;;;;;4855472;29;20253;-87
2023/03/11 07:34:34;;;;;;;1.35;1.20;;;17.60;38.10;;;;;;4838600;29;20685;-88
2023/03/11 07:37:12;;;;;;;2.92;1.55;;;17.60;38.20;;;;;;4834879;29;20349;-86
2023/03/11 07:39:43;;;;;;;1.52;1.42;;;17.60;38.20;;;;;;4837766;29;20733;-87
2023/03/11 07:42:13;;;;;;;1.63;1.50;;;17.60;38.10;;;;;;4855036;29;20317;-87
2023/03/11 07:44:40;;;;;;;1.75;1.50;;;17.50;38.10;;;;;;4856266;29;20204;-87
2023/03/11 07:47:29;;;;;;;1.75;1.45;;;17.70;38.00;;;;;;4843455;29;20190;-88
2023/03/11 07:50:22;;;;;;;2.05;1.60;;;17.60;38.00;;;;;;4869091;29;20379;-86
2023/03/11 07:53:02;;;;;;;1.55;1.45;;;17.70;38.00;;;;;;4853803;29;20219;-86
2023/03/11 07:55:52;;;;;;;1.65;1.50;;;17.60;38.10;;;;;;4849838;29;20209;-88
2023/03/11 07:58:25;;;;;;;2.22;1.48;;;17.60;38.00;;;;;;4816719;29;20190;-86
2023/03/11 08:00:51;;;;;;;1.90;1.60;;;17.70;38.00;;;;;;4845722;29;20218;-87
2023/03/11 08:03:19;;;;;;;1.73;1.50;;;17.70;38.00;;;;;;4846519;29;20251;-87
2023/03/11 08:05:46;;;;;;;3.00;1.60;;;17.70;38.00;;;;;;4887143;29;20196;-85
2023/03/11 08:08:11;;;;;;;2.90;1.83;;;17.70;38.10;;;;;;4880515;29;20180;-86
2023/03/11 08:10:49;;;;;;;1.63;1.48;;;17.80;38.00;;;;;;4890595;29;20241;-86
2023/03/11 08:13:16;;;;;;;1.33;1.23;;;17.80;37.80;;;;;;4879675;29;20264;-87
2023/03/11 08:15:42;;;;;;;1.60;1.40;;;17.80;37.90;;;;;;4911358;29;20218;-87
2023/03/11 08:18:11;;;;;;;2.08;1.70;;;17.90;37.80;;;;;;4911670;29;20186;-87
2023/03/11 08:20:40;;;;;;;2.22;1.52;;;17.90;37.80;;;;;;4942377;28;20204;-86
2023/03/11 08:23:05;;;;;;;1.70;1.58;;;17.90;37.70;;;;;;4977653;28;20188;-85
2023/03/11 08:25:32;;;;;;;2.47;1.67;;;17.90;37.70;;;;;;5028208;28;20163;-86
2023/03/11 08:28:01;;;;;;;3.33;1.83;;;18.00;37.80;;;;;;5028305;28;20155;-87
2023/03/11 08:30:27;;;;;;;1.85;1.50;;;18.00;37.80;;;;;;5042545;28;20178;-86
2023/03/11 08:32:53;;;;;;;2.83;1.50;;;17.90;37.70;;;;;;5027267;28;20174;-85
2023/03/11 08:35:25;;;;;;;1.95;1.45;;;18.00;37.70;;;;;;5026549;28;20185;-87
2023/03/11 08:37:51;;;;;;;3.05;1.70;;;18.10;37.60;;;;;;5029728;28;20178;-86
2023/03/11 08:40:18;;;;;;;2.60;1.42;;;18.10;37.50;;;;;;5027001;28;20217;-86
2023/03/11 08:42:48;;;;;;;5.05;2.00;;;18.10;37.40;;;;;;5032358;28;20158;-86
2023/03/11 08:45:19;;;;;;;4.95;1.60;;;18.30;37.50;;;;;;5008766;28;20184;-86
2023/03/11 08:47:56;;;;;;;3.08;1.65;;;18.20;37.50;;;;;;5006659;28;20183;-87
2023/03/11 08:50:27;;;;;;;5.05;1.70;;;18.30;37.60;;;;;;4991224;28;20255;-86
2023/03/11 08:52:59;;;;;;;5.95;1.95;;;18.30;37.60;;;;;;5007031;28;20183;-87
2023/03/11 08:55:33;;;;;;;5.75;1.70;;;18.40;37.50;;;;;;4992019;28;20187;-83
2023/03/11 08:58:09;;;;;;;6.57;1.55;;;18.40;37.30;;;;;;4969412;28;20186;-85
2023/03/11 09:00:45;;;;;;;6.78;1.83;;;18.40;37.50;;;;;;5008395;28;20234;-85
2023/03/11 09:03:14;;;;;;;11.10;2.20;;;18.40;37.70;;;;;;5003597;28;20218;-83
2023/03/11 09:05:39;;;;;;;13.70;1.95;;;18.40;37.90;;;;;;4967973;28;20188;-86
2023/03/11 09:08:07;;;;;;;11.52;1.83;;;18.40;38.20;;;;;;4983875;28;20183;-84
2023/03/11 09:10:33;;;;;;;7.60;2.15;;;18.40;38.40;;;;;;4985479;28;20701;-84
2023/03/11 09:12:59;;;;;;;7.00;1.95;;;18.40;38.40;;;;;;4985695;28;20274;-85
2023/03/11 09:15:25;;;;;;;11.23;2.13;;;18.50;38.40;;;;;;4985294;28;20184;-86
2023/03/11 09:17:51;;;;;;;13.30;2.10;;;18.50;38.10;;;;;;4981409;28;20272;-86
2023/03/11 09:20:22;;;;;;;8.68;1.75;;;18.50;38.00;;;;;;4982849;28;20192;-87
2023/03/11 09:22:47;;;;;;;7.15;2.00;;;18.60;37.90;;;;;;4999465;28;20232;-85
2023/03/11 09:25:18;;;;;;;5.63;1.50;;;18.50;38.00;;;;;;5043118;28;20218;-84
2023/03/11 09:27:43;;;;;;;4.35;1.73;;;18.50;38.00;;;;;;5024293;28;20202;-86
2023/03/11 09:30:13;;;;;;;6.72;1.60;;;18.50;38.10;;;;;;5025695;28;20166;-86
2023/03/11 09:32:39;;;;;;;7.05;1.58;;;18.40;38.30;;;;;;5045239;28;20174;-87
2023/03/11 09:35:06;;;;;;;5.20;1.80;;;18.50;38.00;;;;;;4991294;28;20582;-86
2023/03/11 09:37:35;;;;;;;10.20;1.58;;;18.50;38.10;;;;;;5007516;28;20729;-87
2023/03/11 09:40:01;;;;;;;7.13;1.60;;;18.50;38.00;;;;;;5007058;28;20170;-86
2023/03/11 09:42:40;;;;;;;3.45;1.48;;;18.60;38.00;;;;;;5006308;28;20179;-87
2023/03/11 09:45:35;;;;;;;11.48;1.80;;;18.60;37.90;;;;;;5008664;28;20193;-87
2023/03/11 09:48:15;;;;;;;13.30;2.20;;;18.60;37.90;;;;;;5007567;28;20190;-86
2023/03/11 09:50:47;;;;;;;8.13;1.60;;;18.70;38.10;;;;;;5006342;28;20174;-86
2023/03/11 09:53:42;;;;;;;7.53;1.90;;;18.60;37.60;;;;;;4984921;28;20191;-85
2023/03/11 09:56:27;;;;;;;6.55;1.80;;;18.60;37.90;;;;;;4967878;28;20183;-87
2023/03/11 09:59:04;;;;;;;13.13;2.00;;;18.70;38.00;;;;;;4983369;28;20257;-84
2023/03/11 10:01:46;;;;;;;13.55;2.15;;;18.70;38.00;;;;;;4973479;28;20204;-84
2023/03/11 10:04:43;;;;;;;27.73;2.50;;;18.70;38.20;;;;;;4999471;28;20328;-85
2023/03/11 10:07:20;;;;;;;19.52;2.33;;;18.70;38.70;;;;;;4989966;28;20590;-87
2023/03/11 10:09:51;;;;;;;20.52;2.53;;;18.70;40.00;;;;;;4943789;28;20235;-87
2023/03/11 10:12:58;;;;;;;17.88;2.20;;;18.80;39.60;;;;;;4962689;28;20687;-86
2023/03/11 10:16:18;;;;;;;17.00;2.75;;;18.70;39.00;;;;;;4952191;28;20184;-88
2023/03/11 10:18:53;;;;;;;19.05;1.95;;;18.70;39.40;;;;;;4913936;29;20217;-85
2023/03/11 10:21:32;;;;;;;15.05;2.20;;;18.60;39.30;;;;;;4927557;29;20182;-89
2023/03/11 10:24:11;;;;;;;15.38;2.92;;;18.60;39.40;;;;;;4910685;29;20186;-89
2023/03/11 10:26:50;;;;;;;9.98;2.17;;;18.60;39.80;;;;;;4936394;29;20633;-87
2023/03/11 10:29:34;;;;;;;16.48;2.15;;;18.60;40.10;;;;;;4958392;29;20301;-85
2023/03/11 10:32:19;;;;;;;24.08;2.50;;;18.70;40.50;;;;;;4937606;29;20167;-86
2023/03/11 10:35:22;;;;;;;11.85;1.90;;;18.70;40.30;;;;;;4908670;29;20238;-87
2023/03/11 10:37:53;;;;;;;17.33;2.60;;;18.80;39.80;;;;;;4905758;29;20198;-87
2023/03/11 10:40:29;;;;;;;14.48;2.08;;;18.80;39.90;;;;;;4885728;29;20214;-87
2023/03/11 10:43:01;;;;;;;12.75;2.22;;;18.80;39.80;;;;;;4873819;29;20232;-88
2023/03/11 10:45:36;;;;;;;12.95;2.50;;;18.70;39.90;;;;;;4875007;29;20200;-86
2023/03/11 10:48:12;;;;;;;10.45;1.58;;;18.70;40.40;;;;;;4884634;29;20187;-88
2023/03/11 10:50:48;;;;;;;7.40;1.60;;;18.70;39.80;;;;;;4885436;29;20179;-88
2023/03/11 10:53:18;;;;;;;16.00;2.03;;;18.80;40.20;;;;;;4904731;29;20251;-87
2023/03/11 10:55:48;;;;;;;13.55;2.30;;;18.80;40.10;;;;;;4954013;28;20248;-90
2023/03/11 10:58:16;;;;;;;10.00;1.77;;;18.70;40.20;;;;;;4947469;29;20173;-90
2023/03/11 11:01:01;;;;;;;12.35;1.90;;;18.70;40.10;;;;;;4945901;29;20208;-89
2023/03/11 11:03:30;;;;;;;17.02;2.55;;;18.70;40.10;;;;;;4957185;28;20236;-87
2023/03/11 11:06:02;;;;;;;14.65;2.13;;;18.70;40.10;;;;;;4952713;28;20168;-87
2023/03/11 11:08:28;;;;;;;10.10;1.50;;;18.70;40.10;;;;;;4951489;28;20220;-89
2023/03/11 11:10:59;;;;;;;13.32;2.05;;;18.80;40.30;;;;;;4969390;28;20192;-88
2023/03/11 11:13:30;;;;;;;11.52;1.85;;;18.80;40.70;;;;;;4970369;28;20363;-88
2023/03/11 11:16:05;;;;;;;11.00;1.90;;;18.70;40.20;;;;;;4952606;28;20180;-90
2023/03/11 11:18:43;;;;;;;11.18;1.77;;;18.80;40.80;;;;;;4933657;29;20188;-89
2023/03/11 11:21:44;;;;;;;20.70;1.90;;;18.70;40.70;;;;;;4930840;29;20229;-90
2023/03/11 11:24:27;;;;;;;8.43;1.67;;;18.80;40.50;;;;;;4902933;29;20191;-88
2023/03/11 11:27:20;;;;;;;6.00;1.60;;;18.80;40.50;;;;;;4891018;29;20167;-87
2023/03/11 11:30:17;;;;;;;9.30;1.48;;;18.80;40.60;;;;;;4906112;29;20164;-87
2023/03/11 11:32:44;;;;;;;15.52;1.60;;;18.80;40.80;;;;;;4927480;29;20807;-87
2023/03/11 11:35:11;;;;;;;9.25;1.70;;;18.80;40.80;;;;;;4964238;28;20316;-88
2023/03/11 11:37:41;;;;;;;10.75;1.65;;;18.80;40.60;;;;;;4964790;28;20204;-86
2023/03/11 11:40:32;;;;;;;5.80;1.50;;;18.80;40.60;;;;;;4963421;28;20192;-88
2023/03/11 11:43:11;;;;;;;3.78;1.30;;;18.80;40.50;;;;;;4973258;28;20176;-86
2023/03/11 11:45:45;;;;;;;14.40;1.95;;;18.90;40.40;;;;;;4941738;28;20185;-86
2023/03/11 11:48:19;;;;;;;7.53;1.67;;;18.80;40.60;;;;;;4964413;28;20184;-88
2023/03/11 11:50:50;;;;;;;9.20;1.85;;;18.90;40.40;;;;;;4968985;28;20287;-87
2023/03/11 11:53:29;;;;;;;12.48;1.75;;;18.90;40.50;;;;;;4969471;28;20373;-87
2023/03/11 11:55:56;;;;;;;8.93;1.90;;;18.90;40.70;;;;;;4984758;28;20186;-86
2023/03/11 11:58:25;;;;;;;8.43;1.80;;;18.80;40.60;;;;;;5063076;28;20174;-89
2023/03/11 12:01:22;;;;;;;14.82;1.90;;;18.90;40.80;;;;;;5073458;28;20198;-88
2023/03/11 12:04:12;;;;;;;11.88;1.85;;;18.80;40.60;;;;;;5036988;28;20227;-87
2023/03/11 12:06:57;;;;;;;9.52;1.60;;;18.80;40.50;;;;;;5048461;28;20210;-87
2023/03/11 12:09:38;;;;;;;9.75;1.58;;;18.90;40.70;;;;;;5049825;28;20166;-87
2023/03/11 12:12:15;;;;;;;10.60;2.00;;;18.80;40.80;;;;;;5050036;28;20170;-85
2023/03/11 12:15:12;;;;;;;5.05;1.55;;;18.90;41.00;;;;;;5050053;28;20630;-87
2023/03/11 12:17:47;;;;;;;8.75;1.65;;;18.80;40.60;;;;;;5062354;28;20154;-87
2023/03/11 12:21:33;;;;;;;11.85;1.73;;;18.80;40.50;;;;;;5032953;28;20180;-87
2023/03/11 12:23:52;;;;;;;7.57;1.60;;;18.90;40.60;;;;;;5059696;28;20253;-88
2023/03/11 12:26:22;;;;;;;9.93;1.70;;;18.80;40.50;;;;;;5069190;28;20154;-87
2023/03/11 12:29:03;;;;;;;9.10;1.63;;;18.90;40.20;;;;;;5080580;28;20297;-87
2023/03/11 12:31:56;;;;;;;8.73;1.50;;;19.00;40.30;;;;;;5080559;28;20227;-89
2023/03/11 12:34:24;;;;;;;10.48;1.77;;;19.00;40.20;;;;;;5067480;28;20199;-87
2023/03/11 12:36:50;;;;;;;9.50;1.60;;;18.90;39.60;;;;;;5067716;28;20173;-88
2023/03/11 12:39:33;;;;;;;5.72;1.45;;;18.90;39.60;;;;;;5066586;28;20248;-88
2023/03/11 12:42:14;;;;;;;9.48;2.00;;;19.00;39.50;;;;;;5067260;28;20651;-88
2023/03/11 12:44:51;;;;;;;10.55;1.42;;;18.90;39.60;;;;;;5067471;28;20224;-89
2023/03/11 12:47:31;;;;;;;7.95;1.33;;;18.90;39.30;;;;;;5066149;28;20599;-88
2023/03/11 12:50:47;;;;;;;9.57;1.52;;;18.90;39.20;;;;;;5070830;28;20181;-88
2023/03/11 12:53:20;;;;;;;11.38;1.90;;;18.90;39.60;;;;;;5049142;28;20178;-89
2023/03/11 12:56:02;;;;;;;7.88;1.90;;;18.90;39.40;;;;;;5007016;28;20307;-89
2023/03/11 12:58:58;;;;;;;10.45;1.90;;;18.90;39.60;;;;;;5007327;28;20178;-89
2023/03/11 13:01:35;;;;;;;10.52;1.20;;;18.90;39.60;;;;;;5007805;28;20230;-90
2023/03/11 13:04:17;;;;;;;8.80;1.45;;;18.90;39.60;;;;;;5006194;28;20214;-88
2023/03/11 13:07:21;;;;;;;9.35;2.05;;;18.80;39.40;;;;;;5022193;28;20179;-89
2023/03/11 13:10:02;;;;;;;7.10;1.50;;;18.90;39.60;;;;;;5021835;28;20207;-87
2023/03/11 13:12:46;;;;;;;6.05;1.60;;;18.80;39.80;;;;;;5004207;28;20233;-90
2023/03/11 13:15:40;;;;;;;8.10;1.77;;;18.80;40.10;;;;;;5037494;28;20322;-87
2023/03/11 13:18:24;;;;;;;13.10;1.70;;;18.80;40.20;;;;;;4999599;28;20630;-88
2023/03/11 13:20:56;;;;;;;9.32;1.77;;;18.80;40.00;;;;;;4999577;28;20534;-89
2023/03/11 13:23:41;;;;;;;7.18;1.48;;;18.80;40.00;;;;;;4997261;28;20192;-88
2023/03/11 13:26:16;;;;;;;9.23;1.67;;;18.80;39.80;;;;;;4985405;28;20191;-89
2023/03/11 13:28:55;;;;;;;8.63;1.60;;;18.80;39.80;;;;;;5017768;28;20182;-86
2023/03/11 13:32:11;;;;;;;10.27;1.83;;;18.80;39.60;;;;;;5021148;28;20784;-90